Airfield :
LOGIN :

Register | Disclaimer

   EN    FR    IT 

 










Legend :    VFR   Marginal VFR   IFR   Intensive IFR   Very Intensive IFR
Visi :
Ceiling :
>= 8 km
>= 3000ft
5 to 8 km
1000 to 3000 ft
1500m to 5 km
500 to 1000 ft
800 to 1500m
200 to 500 ft
< 800m
< 200 ft
Symbols :   Thunderstorms  Fog  Heavy snow  Heavy precipitations  Wind > 20 kt
SIGMETs :     Misc.  Thunderstorms  Icing  Turbulence  Mountain Waves  Volcanic Ashes






- Airport Elevation : 306 ft
- IATA code : EMA


EGNX - Nottingham East Midlands

CURRENT METAR :
  • 221320Z 20012KT 9999 SCT036 19/10 Q1011

EXPIRED METARs :
  • 221250Z 22014KT 9999 SCT036 20/11 Q1011
  • 221220Z 20014KT 9999 SCT035 19/10 Q1011
  • 221150Z 21014KT 9999 SCT035 19/10 Q1011
  • 221120Z 19012KT 170V240 9999 SCT034 19/10 Q1012

TAF TAF EGNX
Valid from the 22 at 12:00 until the 23 at 12:00 UTC


221125Z 2212/2312 21010KT 9999 SCT045
PROB30
TEMPO 2214/2218 8000 -SHRA
BECMG 2218/2221 27008KT
PROB30
TEMPO 2221/2301 BKN014
ATIS : +44 1332 852 852 (ext 3201)



MET'MAP, your aeronautical weather chart ! - Copyright ORBIFLY December 2007 - Disclaimer

ORBIFLY MET'MAP TEAM :

Programming & Development : Alexandra Zaïnal
Original concept : Baudouin d'Aumeries
Technical & hardware support : Manuel Goepfert
Assistance : Marc-Olivier Méhu

Contact : metmap@orbifly.com




SOURCES & CREDITS :

   NOAA